Time;durP1;ratioP1;P1;durP2;ratioP2;P2;SDS_P1;SDS_P2;PMS_P1;PMS_P2;Temp;Humidity;BMP_temperature;BMP_pressure;BME280_temperature;BME280_humidity;BME280_pressure;Samples;Min_cycle;Max_cycle;Signal;HPM_P1;HPM_P2
2024/03/02 00:00:39;;;;;;;8.27;4.85;;;6.40;99.90;;;;;;4940394;29;20051;-83
2024/03/02 00:03:07;;;;;;;9.32;5.07;;;6.40;99.90;;;;;;4936522;29;20045;-84
2024/03/02 00:05:34;;;;;;;10.68;5.45;;;6.40;99.90;;;;;;4932856;29;20283;-84
2024/03/02 00:08:01;;;;;;;10.60;5.57;;;7.20;99.90;;;;;;4951795;29;20046;-84
2024/03/02 00:10:41;;;;;;;10.45;5.65;;;6.40;99.90;;;;;;4931394;29;20454;-84
2024/03/02 00:13:08;;;;;;;12.07;5.50;;;6.40;99.90;;;;;;4936340;29;20506;-83
2024/03/02 00:15:55;;;;;;;11.80;5.30;;;6.40;99.90;;;;;;4923690;29;20406;-84
2024/03/02 00:18:33;;;;;;;9.50;5.03;;;6.40;99.90;;;;;;4928713;29;20390;-83
2024/03/02 00:21:00;;;;;;;9.75;5.30;;;7.00;99.90;;;;;;4918858;29;20048;-84
2024/03/02 00:23:30;;;;;;;10.10;5.68;;;6.40;99.90;;;;;;4936119;29;20098;-84
2024/03/02 00:25:59;;;;;;;9.88;5.32;;;6.40;99.90;;;;;;4936016;29;20069;-84
2024/03/02 00:28:34;;;;;;;9.07;5.13;;;7.10;99.90;;;;;;4936047;29;20044;-84
2024/03/02 00:31:09;;;;;;;9.50;5.38;;;6.40;99.90;;;;;;4936328;29;20039;-84
2024/03/02 00:33:41;;;;;;;12.77;5.53;;;6.40;99.90;;;;;;4936344;29;20059;-84
2024/03/02 00:36:08;;;;;;;9.25;5.40;;;6.40;99.90;;;;;;4916839;29;20045;-84
2024/03/02 00:38:51;;;;;;;12.27;5.22;;;6.80;99.90;;;;;;4916846;29;20036;-84
2024/03/02 00:41:26;;;;;;;9.52;5.40;;;6.40;99.90;;;;;;4930888;29;20425;-84
2024/03/02 00:44:05;;;;;;;9.00;4.90;;;6.60;99.90;;;;;;4913846;29;20092;-84
2024/03/02 00:46:37;;;;;;;10.07;5.40;;;6.30;99.90;;;;;;4916869;29;20040;-84
2024/03/02 00:49:10;;;;;;;9.75;5.68;;;6.70;99.90;;;;;;4916739;29;20063;-84
2024/03/02 00:51:38;;;;;;;8.30;4.93;;;6.30;99.90;;;;;;4912118;29;20043;-84
2024/03/02 00:54:08;;;;;;;10.20;5.10;;;6.40;99.90;;;;;;4920749;29;20130;-83
2024/03/02 00:56:35;;;;;;;9.65;5.20;;;6.20;99.90;;;;;;4918075;29;20054;-84
2024/03/02 00:59:02;;;;;;;8.40;5.00;;;6.50;99.90;;;;;;4920606;29;20165;-84
2024/03/02 01:01:29;;;;;;;9.55;5.18;;;7.00;99.90;;;;;;4920604;29;20072;-84
2024/03/02 01:03:55;;;;;;;9.32;5.25;;;6.20;99.90;;;;;;4920278;29;20044;-83
2024/03/02 01:06:22;;;;;;;9.38;5.22;;;6.90;99.90;;;;;;4920467;29;20040;-84
2024/03/02 01:08:51;;;;;;;9.13;4.90;;;6.60;99.90;;;;;;4920846;29;20048;-83
2024/03/02 01:11:18;;;;;;;12.60;5.47;;;6.50;99.90;;;;;;4920377;29;20072;-84
2024/03/02 01:13:46;;;;;;;10.38;5.00;;;6.30;99.90;;;;;;4936271;29;20032;-84
2024/03/02 01:16:13;;;;;;;7.97;4.10;;;6.30;99.90;;;;;;4936300;29;20051;-84
2024/03/02 01:18:39;;;;;;;9.40;5.00;;;6.40;99.90;;;;;;4935962;29;20044;-84
2024/03/02 01:21:06;;;;;;;11.00;4.53;;;6.30;99.90;;;;;;4920029;29;20079;-84
2024/03/02 01:23:33;;;;;;;8.63;4.60;;;6.40;99.90;;;;;;4920227;29;20040;-84
2024/03/02 01:26:00;;;;;;;8.15;4.38;;;6.30;99.90;;;;;;4911595;29;20084;-83
2024/03/02 01:28:26;;;;;;;8.65;4.15;;;6.40;99.90;;;;;;4919919;29;20048;-84
2024/03/02 01:30:53;;;;;;;11.35;4.85;;;6.40;99.90;;;;;;4920391;29;20405;-84
2024/03/02 01:33:21;;;;;;;9.02;4.47;;;6.40;99.90;;;;;;4920042;29;20119;-84
2024/03/02 01:35:47;;;;;;;8.70;4.57;;;6.40;99.90;;;;;;4936029;29;20070;-83
2024/03/02 01:38:14;;;;;;;8.68;4.60;;;6.40;99.90;;;;;;4937979;29;20043;-84
2024/03/02 01:40:44;;;;;;;7.82;4.28;;;6.50;99.90;;;;;;4938587;29;20044;-84
2024/03/02 01:43:11;;;;;;;8.05;4.32;;;6.50;99.90;;;;;;4938925;29;20039;-83
2024/03/02 01:45:37;;;;;;;8.10;4.55;;;6.80;99.90;;;;;;4954378;29;20074;-84
2024/03/02 01:48:07;;;;;;;7.90;4.18;;;6.50;99.90;;;;;;4931436;29;20140;-84
2024/03/02 01:50:34;;;;;;;7.78;4.55;;;6.50;99.90;;;;;;4938625;29;20054;-84
2024/03/02 01:53:02;;;;;;;7.38;4.00;;;6.50;99.90;;;;;;4938872;29;20035;-83
2024/03/02 01:55:30;;;;;;;7.05;4.20;;;6.90;99.90;;;;;;4941646;29;20430;-84
2024/03/02 01:57:56;;;;;;;7.18;3.70;;;6.50;99.90;;;;;;4954184;29;20421;-84
2024/03/02 02:00:26;;;;;;;7.78;4.20;;;6.50;99.90;;;;;;4951900;29;20135;-84
2024/03/02 02:02:53;;;;;;;7.28;3.50;;;6.50;99.90;;;;;;4938057;29;20047;-84
2024/03/02 02:05:20;;;;;;;6.93;3.67;;;6.50;99.90;;;;;;4949396;29;20044;-83
2024/03/02 02:07:47;;;;;;;7.25;3.47;;;7.00;99.90;;;;;;4930759;29;20511;-83
2024/03/02 02:10:13;;;;;;;7.88;3.70;;;6.60;99.90;;;;;;4952382;29;20051;-84
2024/03/02 02:12:40;;;;;;;8.50;3.85;;;6.60;99.90;;;;;;4951663;29;20085;-84
2024/03/02 02:15:27;;;;;;;7.55;4.07;;;6.60;99.90;;;;;;4933248;29;20505;-84
2024/03/02 02:17:55;;;;;;;7.47;3.92;;;6.60;99.90;;;;;;4938355;29;20560;-84
2024/03/02 02:20:22;;;;;;;7.35;3.53;;;6.70;99.90;;;;;;4937837;29;20489;-84
2024/03/02 02:23:03;;;;;;;5.90;3.35;;;6.80;99.90;;;;;;4937905;29;20050;-85
2024/03/02 02:25:30;;;;;;;7.28;3.80;;;6.70;99.90;;;;;;4953713;29;20031;-84
2024/03/02 02:27:57;;;;;;;7.20;3.10;;;6.70;99.90;;;;;;4937837;29;20058;-84
2024/03/02 02:30:29;;;;;;;6.05;3.20;;;6.80;99.90;;;;;;4941134;29;20792;-84
2024/03/02 02:32:56;;;;;;;7.90;2.88;;;6.80;99.90;;;;;;4934427;29;20035;-84
2024/03/02 02:35:26;;;;;;;6.57;2.65;;;6.90;99.90;;;;;;4953279;29;20056;-84
2024/03/02 02:37:54;;;;;;;5.55;2.50;;;7.20;99.90;;;;;;4935377;29;20047;-84
2024/03/02 02:40:21;;;;;;;5.55;2.75;;;7.30;99.90;;;;;;4932259;29;20078;-84
2024/03/02 02:42:48;;;;;;;5.43;2.78;;;6.80;99.90;;;;;;4937155;29;20071;-84
2024/03/02 02:45:14;;;;;;;9.75;3.13;;;6.80;99.90;;;;;;4952150;29;20130;-84
2024/03/02 02:47:42;;;;;;;6.60;3.03;;;6.90;99.90;;;;;;4926123;29;20541;-84
2024/03/02 02:50:09;;;;;;;6.15;2.67;;;7.10;99.90;;;;;;4927075;29;20036;-84
2024/03/02 02:52:40;;;;;;;4.30;2.60;;;7.00;99.90;;;;;;4929883;29;20076;-84
2024/03/02 02:55:08;;;;;;;6.47;2.60;;;7.10;99.90;;;;;;4936129;29;20086;-84
2024/03/02 02:57:38;;;;;;;4.47;2.50;;;7.10;99.90;;;;;;4928467;29;20127;-84
2024/03/02 03:00:10;;;;;;;6.32;2.95;;;7.10;99.90;;;;;;4951639;29;20050;-84
2024/03/02 03:02:38;;;;;;;5.85;2.85;;;7.10;99.90;;;;;;4937574;29;20162;-84
2024/03/02 03:05:06;;;;;;;4.78;2.50;;;7.10;99.90;;;;;;4937151;29;20102;-83
2024/03/02 03:07:34;;;;;;;5.18;2.28;;;7.10;99.90;;;;;;4935387;29;20436;-84
2024/03/02 03:10:01;;;;;;;5.10;2.25;;;7.50;99.90;;;;;;4952957;29;20048;-83
2024/03/02 03:12:27;;;;;;;6.65;2.53;;;7.10;99.90;;;;;;4936423;29;20051;-83
2024/03/02 03:14:54;;;;;;;6.45;2.53;;;7.10;99.90;;;;;;4936502;29;20519;-84
2024/03/02 03:17:22;;;;;;;5.15;2.22;;;7.10;99.90;;;;;;4953323;29;20128;-84
2024/03/02 03:19:49;;;;;;;4.28;2.30;;;7.90;99.90;;;;;;4937394;29;20039;-84
2024/03/02 03:22:16;;;;;;;6.30;2.70;;;7.10;99.90;;;;;;4937058;29;20484;-83
2024/03/02 03:24:43;;;;;;;4.90;2.47;;;7.10;99.90;;;;;;4927103;29;20036;-84
2024/03/02 03:27:11;;;;;;;6.55;2.53;;;7.10;99.90;;;;;;4936932;29;20094;-83
2024/03/02 03:29:38;;;;;;;4.47;2.55;;;7.10;99.90;;;;;;4927881;29;20042;-83
2024/03/02 03:32:06;;;;;;;5.38;2.67;;;7.00;99.90;;;;;;4926460;29;20576;-83
2024/03/02 03:34:34;;;;;;;7.03;2.35;;;7.00;99.90;;;;;;4931275;29;20088;-84
2024/03/02 03:37:01;;;;;;;5.95;2.55;;;7.10;99.90;;;;;;4937307;29;20051;-84
2024/03/02 03:39:28;;;;;;;4.40;2.50;;;7.00;99.90;;;;;;4936778;29;20046;-84
2024/03/02 03:41:55;;;;;;;4.53;2.47;;;6.50;99.90;;;;;;4936523;29;20748;-84
2024/03/02 03:44:22;;;;;;;4.75;2.30;;;7.10;99.90;;;;;;4932209;29;20044;-84
2024/03/02 03:46:48;;;;;;;5.15;2.25;;;7.60;99.90;;;;;;4941429;29;20485;-84
2024/03/02 03:49:15;;;;;;;5.65;2.30;;;7.00;99.90;;;;;;4937762;29;20078;-84
2024/03/02 03:51:41;;;;;;;6.10;2.33;;;7.00;99.90;;;;;;4936233;29;20048;-84
2024/03/02 03:54:08;;;;;;;4.53;2.38;;;7.30;99.90;;;;;;4949063;29;20043;-84
2024/03/02 03:56:35;;;;;;;4.68;2.20;;;7.10;99.90;;;;;;4952182;29;20036;-84
2024/03/02 03:59:01;;;;;;;4.00;2.38;;;7.00;99.90;;;;;;4946132;29;20040;-84
2024/03/02 04:01:28;;;;;;;4.40;2.42;;;7.00;99.90;;;;;;4930256;29;20043;-84
2024/03/02 04:03:55;;;;;;;5.53;2.30;;;7.00;99.90;;;;;;4944100;29;20119;-84
2024/03/02 04:06:22;;;;;;;4.95;2.10;;;7.00;99.90;;;;;;4948971;29;20043;-84
2024/03/02 04:08:48;;;;;;;4.90;2.30;;;7.00;99.90;;;;;;4950105;29;20513;-84
2024/03/02 04:11:15;;;;;;;5.63;2.40;;;7.00;99.90;;;;;;4934918;29;20048;-84
2024/03/02 04:13:41;;;;;;;5.47;2.65;;;7.80;99.90;;;;;;4949238;29;20058;-84
2024/03/02 04:16:08;;;;;;;4.45;2.10;;;7.40;99.90;;;;;;4917873;29;20041;-84
2024/03/02 04:18:35;;;;;;;4.68;2.60;;;6.90;99.90;;;;;;4925651;29;20131;-84
2024/03/02 04:21:01;;;;;;;4.53;2.25;;;6.80;99.90;;;;;;4917611;29;20478;-84
2024/03/02 04:23:28;;;;;;;4.30;2.40;;;6.80;99.90;;;;;;4945543;29;20561;-84
2024/03/02 04:25:55;;;;;;;5.80;2.20;;;7.50;99.90;;;;;;4936688;29;20062;-84
2024/03/02 04:28:21;;;;;;;5.68;2.58;;;6.70;99.90;;;;;;4919184;29;20442;-84
2024/03/02 04:30:48;;;;;;;5.35;2.33;;;6.60;99.90;;;;;;4921611;29;20044;-84
2024/03/02 04:33:15;;;;;;;5.18;2.22;;;6.60;99.90;;;;;;4954669;29;20123;-83
2024/03/02 04:35:41;;;;;;;6.68;2.65;;;6.50;99.90;;;;;;4955193;29;20126;-84
2024/03/02 04:38:08;;;;;;;4.10;2.15;;;6.40;99.90;;;;;;4952950;29;20071;-84
2024/03/02 04:40:35;;;;;;;5.30;2.55;;;6.40;99.90;;;;;;4939953;29;20461;-84
2024/03/02 04:43:02;;;;;;;5.32;2.33;;;6.40;99.90;;;;;;4953445;29;20052;-84
2024/03/02 04:45:29;;;;;;;5.95;2.53;;;6.40;99.90;;;;;;4938576;29;20036;-83
2024/03/02 04:47:56;;;;;;;5.45;2.40;;;7.10;99.90;;;;;;4933825;29;20093;-84
2024/03/02 04:50:22;;;;;;;5.22;2.20;;;6.20;99.90;;;;;;4931735;29;20490;-84
2024/03/02 04:52:49;;;;;;;5.28;2.60;;;6.50;99.90;;;;;;4932149;29;20040;-84
2024/03/02 04:57:54;;;;;;;4.90;2.73;;;6.10;99.90;;;;;;4955546;29;20456;-84
2024/03/02 05:00:21;;;;;;;4.68;2.53;;;6.10;99.90;;;;;;4955530;29;20283;-84
2024/03/02 05:02:48;;;;;;;4.75;2.35;;;6.00;99.90;;;;;;4939826;29;20063;-84
2024/03/02 05:05:17;;;;;;;5.32;2.90;;;6.30;99.90;;;;;;4939262;29;20140;-84
2024/03/02 05:07:43;;;;;;;5.63;3.05;;;6.90;99.90;;;;;;4939446;29;20044;-84
2024/03/02 05:10:11;;;;;;;5.25;2.75;;;6.20;99.90;;;;;;4939399;29;20597;-84
2024/03/02 05:12:59;;;;;;;6.03;2.85;;;5.90;99.90;;;;;;4938448;29;20040;-83
2024/03/02 05:15:25;;;;;;;5.88;2.78;;;6.80;99.90;;;;;;4954474;29;20505;-84
2024/03/02 05:17:53;;;;;;;7.15;3.00;;;6.10;99.90;;;;;;4938945;29;20050;-83
2024/03/02 05:20:19;;;;;;;7.28;2.83;;;5.90;99.90;;;;;;4931586;29;20767;-84
2024/03/02 05:22:47;;;;;;;5.72;2.80;;;6.00;99.90;;;;;;4936984;29;20176;-84
2024/03/02 05:25:13;;;;;;;5.55;2.65;;;6.00;99.90;;;;;;4938370;29;20091;-84
2024/03/02 05:27:41;;;;;;;5.10;2.65;;;6.00;99.90;;;;;;4942156;29;20044;-83
2024/03/02 05:30:08;;;;;;;6.43;2.80;;;6.00;99.90;;;;;;4939061;29;20044;-84
2024/03/02 05:32:35;;;;;;;5.45;2.80;;;6.10;99.90;;;;;;4935228;29;20078;-83
2024/03/02 05:35:02;;;;;;;5.32;2.67;;;6.10;99.90;;;;;;4954230;29;20083;-84
2024/03/02 05:37:29;;;;;;;5.82;2.83;;;6.10;99.90;;;;;;4928925;29;21406;-84
2024/03/02 05:39:56;;;;;;;5.13;2.80;;;6.70;99.90;;;;;;4938942;29;20140;-84
2024/03/02 05:42:23;;;;;;;5.53;2.67;;;6.40;99.90;;;;;;4951228;29;20047;-84
2024/03/02 05:44:49;;;;;;;5.65;2.65;;;6.10;99.90;;;;;;4936826;29;20042;-85
2024/03/02 05:47:16;;;;;;;5.18;2.70;;;6.30;99.90;;;;;;4939048;29;20043;-84
2024/03/02 05:49:43;;;;;;;5.03;2.70;;;6.50;99.90;;;;;;4938693;29;20046;-84
2024/03/02 05:52:11;;;;;;;5.32;2.88;;;6.10;99.90;;;;;;4938645;29;20044;-84
2024/03/02 05:54:38;;;;;;;4.72;2.58;;;6.10;99.90;;;;;;4938891;29;20067;-84
2024/03/02 05:57:23;;;;;;;5.03;2.55;;;6.00;99.90;;;;;;4934195;29;20036;-84
2024/03/02 05:59:49;;;;;;;4.78;2.65;;;6.00;99.90;;;;;;4957766;29;20142;-84
2024/03/02 06:02:16;;;;;;;5.47;2.97;;;6.00;99.90;;;;;;4943123;29;20123;-84
2024/03/02 06:04:43;;;;;;;6.90;2.88;;;5.90;99.90;;;;;;4951504;29;20409;-85
2024/03/02 06:07:09;;;;;;;7.07;2.92;;;5.70;99.90;;;;;;4937429;29;20044;-85
2024/03/02 06:09:36;;;;;;;6.20;2.80;;;5.80;99.90;;;;;;4938304;29;20043;-84
2024/03/02 06:12:04;;;;;;;5.03;2.63;;;5.70;99.90;;;;;;4937071;29;20416;-85
2024/03/02 06:14:30;;;;;;;6.45;3.22;;;5.70;99.90;;;;;;4934755;29;20032;-85
2024/03/02 06:16:57;;;;;;;4.72;2.75;;;6.10;99.90;;;;;;4951613;29;20086;-91
2024/03/02 06:19:24;;;;;;;6.47;2.80;;;5.70;99.90;;;;;;4938090;29;20036;-83
2024/03/02 06:21:50;;;;;;;5.75;2.67;;;5.70;99.90;;;;;;4938043;29;20094;-82
2024/03/02 06:24:17;;;;;;;9.73;3.10;;;6.40;99.90;;;;;;4953175;29;20047;-82
2024/03/02 06:26:43;;;;;;;6.72;2.88;;;6.70;99.90;;;;;;4935267;29;20052;-82
2024/03/02 06:29:10;;;;;;;8.52;3.17;;;5.70;99.90;;;;;;4923723;29;20047;-82
2024/03/02 06:31:36;;;;;;;6.25;3.15;;;5.80;99.90;;;;;;4928760;29;20044;-82
2024/03/02 06:34:04;;;;;;;5.45;2.80;;;5.80;99.90;;;;;;4938329;29;20059;-82
2024/03/02 06:36:31;;;;;;;6.25;2.85;;;5.90;99.90;;;;;;4932240;29;20040;-81
2024/03/02 06:38:57;;;;;;;6.75;3.15;;;5.90;99.90;;;;;;4939480;29;20046;-82
2024/03/02 06:41:24;;;;;;;5.72;3.00;;;5.90;99.90;;;;;;4940709;29;20054;-82
2024/03/02 06:43:59;;;;;;;6.25;2.70;;;5.90;99.90;;;;;;4962585;29;20052;-82
2024/03/02 06:46:25;;;;;;;6.03;3.22;;;5.90;99.90;;;;;;4926954;29;20086;-83
2024/03/02 06:48:52;;;;;;;5.47;3.00;;;6.10;99.90;;;;;;4936209;29;20063;-82
2024/03/02 06:51:19;;;;;;;5.90;2.88;;;6.20;99.90;;;;;;4939165;29;20051;-82
2024/03/02 06:53:46;;;;;;;5.93;3.00;;;6.10;99.90;;;;;;4950474;29;20035;-82
2024/03/02 06:56:13;;;;;;;5.40;3.22;;;6.70;99.90;;;;;;4937843;29;20047;-82
2024/03/02 06:58:39;;;;;;;5.47;2.90;;;5.80;99.90;;;;;;4940891;29;20489;-82
2024/03/02 07:01:06;;;;;;;7.82;3.65;;;5.80;99.90;;;;;;4937158;29;20461;-82
2024/03/02 07:03:33;;;;;;;6.10;3.10;;;5.80;99.90;;;;;;4937514;29;20058;-82
2024/03/02 07:06:06;;;;;;;6.38;2.92;;;6.40;99.90;;;;;;4929617;29;20441;-82
2024/03/02 07:08:33;;;;;;;6.93;2.90;;;5.80;99.90;;;;;;4934263;29;20481;-82
2024/03/02 07:11:00;;;;;;;7.22;3.10;;;5.90;99.90;;;;;;4929988;29;20098;-82
2024/03/02 07:13:27;;;;;;;5.53;2.50;;;5.80;99.90;;;;;;4937252;29;20517;-82
2024/03/02 07:18:40;;;;;;;6.60;3.00;;;5.90;99.90;;;;;;4956359;29;20477;-82
2024/03/02 07:21:07;;;;;;;5.60;3.03;;;6.60;99.90;;;;;;4953116;29;20043;-83
2024/03/02 07:23:34;;;;;;;5.88;3.20;;;6.60;99.90;;;;;;4937374;29;20083;-82
2024/03/02 07:26:01;;;;;;;7.18;3.30;;;6.00;99.90;;;;;;4933007;29;20051;-82
2024/03/02 07:28:28;;;;;;;6.85;3.28;;;6.30;99.90;;;;;;4929017;29;20039;-82
2024/03/02 07:31:04;;;;;;;6.72;3.70;;;6.20;99.90;;;;;;4937029;29;20684;-82
2024/03/02 07:33:31;;;;;;;6.40;3.30;;;6.20;99.90;;;;;;4936594;29;20046;-82
2024/03/02 07:35:59;;;;;;;7.50;3.08;;;6.30;99.90;;;;;;4931140;29;20513;-82
2024/03/02 07:38:27;;;;;;;5.38;2.90;;;6.30;99.90;;;;;;4937352;29;20134;-82
2024/03/02 07:40:56;;;;;;;5.45;2.58;;;6.40;99.90;;;;;;4935597;29;20050;-82
2024/03/02 07:43:23;;;;;;;5.57;2.83;;;6.60;99.90;;;;;;4946238;29;20044;-82
2024/03/02 07:45:50;;;;;;;6.78;2.83;;;6.60;99.90;;;;;;4926272;29;20039;-82
2024/03/02 07:48:16;;;;;;;5.53;2.72;;;7.20;99.90;;;;;;4936356;29;20103;-82
2024/03/02 07:50:46;;;;;;;6.03;2.88;;;6.70;99.90;;;;;;4935222;29;20513;-82
2024/03/02 07:53:13;;;;;;;5.63;2.60;;;6.80;99.90;;;;;;4932241;29;20120;-82
2024/03/02 07:55:40;;;;;;;5.93;2.85;;;6.80;99.90;;;;;;4933323;29;20175;-82
2024/03/02 07:58:07;;;;;;;5.10;2.85;;;7.00;99.90;;;;;;4923853;29;20118;-82
2024/03/02 08:00:33;;;;;;;6.95;2.80;;;7.00;99.90;;;;;;4936444;29;20098;-82
2024/03/02 08:03:01;;;;;;;5.65;2.78;;;7.00;99.90;;;;;;4931395;29;20040;-82
2024/03/02 08:05:27;;;;;;;7.32;2.75;;;7.00;99.90;;;;;;4952453;29;20492;-82
2024/03/02 08:07:54;;;;;;;5.50;2.72;;;8.00;99.90;;;;;;4952301;29;20052;-82
2024/03/02 08:10:21;;;;;;;6.03;2.90;;;7.20;99.90;;;;;;4951637;29;20040;-82
2024/03/02 08:12:47;;;;;;;5.05;2.75;;;7.20;99.90;;;;;;4935242;29;20035;-82
2024/03/02 08:15:14;;;;;;;6.38;2.80;;;7.30;99.90;;;;;;4939861;29;20043;-82
2024/03/02 08:17:48;;;;;;;5.78;2.78;;;7.40;99.90;;;;;;4936215;29;20489;-82
2024/03/02 08:20:14;;;;;;;5.97;3.05;;;7.50;99.90;;;;;;4935963;29;20834;-83
2024/03/02 08:22:41;;;;;;;4.32;2.33;;;7.60;99.90;;;;;;4924857;29;20040;-83
2024/03/02 08:25:09;;;;;;;5.03;2.70;;;7.90;99.90;;;;;;4932212;29;20040;-83
2024/03/02 08:27:36;;;;;;;6.45;2.80;;;7.70;99.90;;;;;;4929951;29;20086;-83
2024/03/02 08:30:06;;;;;;;6.22;2.83;;;8.00;99.90;;;;;;4927734;29;20047;-83
2024/03/02 08:32:32;;;;;;;5.30;2.83;;;7.70;99.90;;;;;;4951412;29;20043;-82
2024/03/02 08:34:59;;;;;;;6.53;2.97;;;7.80;99.90;;;;;;4926041;29;20123;-82
2024/03/02 08:37:26;;;;;;;4.95;2.72;;;7.80;99.90;;;;;;4935702;29;20524;-82
2024/03/02 08:39:53;;;;;;;6.35;2.80;;;7.80;99.90;;;;;;4949224;29;20466;-82
2024/03/02 08:42:20;;;;;;;4.95;2.63;;;7.90;99.90;;;;;;4936434;29;20433;-82
2024/03/02 08:44:46;;;;;;;5.43;2.53;;;7.90;99.90;;;;;;4936147;29;20038;-82
2024/03/02 08:47:13;;;;;;;5.38;2.40;;;8.00;99.90;;;;;;4933420;29;20095;-83
2024/03/02 08:49:40;;;;;;;3.85;2.20;;;8.00;99.90;;;;;;4934213;29;20136;-82
2024/03/02 08:52:07;;;;;;;7.68;3.00;;;8.00;99.90;;;;;;4943188;29;20083;-83
2024/03/02 08:54:35;;;;;;;5.00;2.90;;;8.10;99.90;;;;;;4936295;29;20035;-82
2024/03/02 08:57:02;;;;;;;6.90;3.10;;;8.10;99.90;;;;;;4935930;29;20138;-82
2024/03/02 08:59:29;;;;;;;5.38;3.08;;;8.20;99.90;;;;;;4935304;29;20122;-82
2024/03/02 09:01:55;;;;;;;5.47;2.92;;;9.10;99.90;;;;;;4935587;29;20071;-83
2024/03/02 09:04:22;;;;;;;7.72;3.55;;;8.20;99.90;;;;;;4935616;29;20425;-83
2024/03/02 09:06:49;;;;;;;6.22;2.95;;;8.30;99.90;;;;;;4947571;29;20044;-82
2024/03/02 09:09:15;;;;;;;5.97;3.00;;;8.30;99.90;;;;;;4943804;29;20051;-82
2024/03/02 09:11:42;;;;;;;4.53;2.65;;;8.40;99.90;;;;;;4944921;29;20644;-83
2024/03/02 09:14:09;;;;;;;5.05;2.90;;;8.40;99.90;;;;;;4937960;29;20043;-82
2024/03/02 09:16:35;;;;;;;6.05;2.88;;;8.50;99.90;;;;;;4939892;29;20524;-82
2024/03/02 09:19:02;;;;;;;6.05;2.80;;;8.50;99.90;;;;;;4935395;29;20090;-83
2024/03/02 09:21:29;;;;;;;7.65;3.08;;;8.60;99.90;;;;;;4938863;29;20040;-82
2024/03/02 09:23:57;;;;;;;6.35;2.70;;;9.20;99.90;;;;;;4939176;29;20044;-82
2024/03/02 09:26:24;;;;;;;6.43;3.30;;;8.80;99.90;;;;;;4939220;29;20561;-83
2024/03/02 09:28:51;;;;;;;10.05;3.00;;;8.80;99.90;;;;;;4943273;29;20394;-83
2024/03/02 09:31:17;;;;;;;5.05;2.55;;;8.90;99.90;;;;;;4958186;29;20047;-82
2024/03/02 09:33:44;;;;;;;4.65;2.38;;;9.00;99.90;;;;;;4942390;29;20103;-82
2024/03/02 09:36:22;;;;;;;3.97;2.35;;;9.20;99.90;;;;;;4954312;29;20059;-82
2024/03/02 09:38:51;;;;;;;4.72;2.20;;;9.30;99.90;;;;;;4936172;29;20047;-82
2024/03/02 09:41:18;;;;;;;4.18;2.17;;;9.50;99.90;;;;;;4923043;29;20052;-82
2024/03/02 09:43:45;;;;;;;5.30;2.40;;;9.60;99.90;;;;;;4954955;29;20043;-83
2024/03/02 09:46:11;;;;;;;5.10;1.83;;;9.80;99.90;;;;;;4938698;29;20048;-83
2024/03/02 09:48:38;;;;;;;4.90;1.95;;;9.80;99.90;;;;;;4934711;29;20043;-82
2024/03/02 09:51:05;;;;;;;4.43;1.83;;;9.90;99.90;;;;;;4951509;29;20052;-82
2024/03/02 09:53:33;;;;;;;4.28;2.00;;;9.90;99.90;;;;;;4954058;29;20044;-82
2024/03/02 09:56:01;;;;;;;5.40;1.70;;;10.10;99.90;;;;;;4938353;29;20044;-82
2024/03/02 09:58:28;;;;;;;2.67;1.38;;;10.10;99.90;;;;;;4938002;29;20058;-82
2024/03/02 10:00:54;;;;;;;5.00;1.75;;;10.10;99.90;;;;;;4938979;29;20058;-82
2024/03/02 10:03:24;;;;;;;3.00;1.48;;;10.20;99.90;;;;;;4938511;29;20043;-82
2024/03/02 10:05:51;;;;;;;3.33;1.20;;;10.20;99.90;;;;;;4954616;29;20044;-82
2024/03/02 10:08:18;;;;;;;2.33;1.08;;;10.30;99.90;;;;;;4954893;29;20046;-82
2024/03/02 10:10:45;;;;;;;2.55;1.20;;;10.40;99.90;;;;;;4938177;29;20588;-82
2024/03/02 10:13:13;;;;;;;2.95;1.10;;;10.50;99.90;;;;;;4964939;29;20042;-83
2024/03/02 10:15:41;;;;;;;3.92;1.30;;;10.60;99.90;;;;;;4938249;29;20044;-83
2024/03/02 10:18:12;;;;;;;6.03;1.15;;;10.80;99.90;;;;;;4925825;29;20051;-83
2024/03/02 10:20:40;;;;;;;2.20;1.00;;;10.70;99.90;;;;;;4935088;29;20115;-83
2024/03/02 10:23:15;;;;;;;2.20;0.98;;;10.80;99.90;;;;;;4932527;29;20444;-83
2024/03/02 10:25:42;;;;;;;3.47;1.05;;;10.90;99.90;;;;;;4945022;29;20036;-83
2024/03/02 10:28:08;;;;;;;2.13;1.00;;;11.10;99.90;;;;;;4934662;29;20047;-83
2024/03/02 10:30:35;;;;;;;3.75;1.40;;;11.20;99.90;;;;;;4938023;29;20544;-83
2024/03/02 10:33:03;;;;;;;2.28;1.10;;;11.20;99.90;;;;;;4953703;29;20043;-83
2024/03/02 10:35:36;;;;;;;2.53;1.10;;;11.00;99.90;;;;;;4937987;29;20402;-83
2024/03/02 10:38:05;;;;;;;3.88;1.42;;;11.00;99.90;;;;;;4936137;29;20037;-83
2024/03/02 10:40:32;;;;;;;3.75;1.40;;;10.90;99.90;;;;;;4937980;29;20035;-83
2024/03/02 10:43:01;;;;;;;4.05;1.50;;;10.90;99.90;;;;;;4923336;29;20096;-83
2024/03/02 10:45:29;;;;;;;3.92;1.67;;;11.10;99.90;;;;;;4938231;29;20062;-83
2024/03/02 10:47:56;;;;;;;4.05;1.90;;;10.90;99.90;;;;;;4950685;29;20489;-83
2024/03/02 10:50:24;;;;;;;2.40;1.20;;;10.90;99.90;;;;;;4937402;29;20031;-83
2024/03/02 10:52:51;;;;;;;5.20;1.98;;;10.90;99.90;;;;;;4934891;29;20051;-83
2024/03/02 10:55:18;;;;;;;3.70;1.80;;;11.00;99.90;;;;;;4944774;29;20485;-83
2024/03/02 10:57:56;;;;;;;3.25;1.67;;;11.00;99.90;;;;;;4945277;29;20040;-83
2024/03/02 11:00:29;;;;;;;6.80;2.15;;;11.00;99.90;;;;;;4931578;29;20040;-84
2024/03/02 11:03:00;;;;;;;4.75;2.05;;;11.10;99.90;;;;;;4931133;29;20107;-84
2024/03/02 11:05:29;;;;;;;7.20;2.30;;;11.10;99.90;;;;;;4954399;29;20063;-83
2024/03/02 11:08:06;;;;;;;4.68;1.83;;;11.00;99.90;;;;;;4934575;29;20051;-83
2024/03/02 11:10:53;;;;;;;6.05;2.30;;;11.20;99.90;;;;;;4933348;29;20050;-83
2024/03/02 11:13:30;;;;;;;4.30;1.92;;;11.60;99.90;;;;;;4931330;29;20382;-83
2024/03/02 11:16:06;;;;;;;4.60;2.22;;;11.30;99.90;;;;;;4935121;29;20405;-84
2024/03/02 11:18:36;;;;;;;10.27;2.92;;;11.30;99.90;;;;;;4937405;29;20047;-83
2024/03/02 11:21:03;;;;;;;4.22;2.13;;;11.30;99.90;;;;;;4932824;29;20504;-83
2024/03/02 11:23:35;;;;;;;4.38;2.35;;;11.30;99.90;;;;;;4931112;29;20040;-84
2024/03/02 11:26:21;;;;;;;4.47;2.30;;;11.50;99.90;;;;;;4936373;29;20039;-83
2024/03/02 11:28:47;;;;;;;;;;;11.40;99.90;;;;;;4940134;29;20472;-83
2024/03/02 11:31:14;;;;;;;5.28;2.30;;;11.50;99.90;;;;;;4926879;29;20014;-83
2024/03/02 11:33:41;;;;;;;5.05;2.58;;;11.50;99.90;;;;;;4952496;29;20090;-83
2024/03/02 11:36:08;;;;;;;3.70;2.17;;;11.50;99.90;;;;;;4936686;29;20505;-83
2024/03/02 11:38:36;;;;;;;3.83;2.40;;;11.50;99.90;;;;;;4936868;29;20039;-83
2024/03/02 11:41:08;;;;;;;3.95;2.13;;;11.60;99.90;;;;;;4936960;29;20044;-83
2024/03/02 11:43:43;;;;;;;3.50;2.20;;;11.60;99.90;;;;;;4956889;29;20382;-83
2024/03/02 11:46:10;;;;;;;6.03;2.50;;;11.60;99.90;;;;;;4931033;29;20048;-83
2024/03/02 11:48:39;;;;;;;4.30;2.35;;;11.70;99.90;;;;;;4924852;29;20098;-84
2024/03/02 11:51:06;;;;;;;5.38;2.78;;;11.70;99.90;;;;;;4936711;29;20075;-84
2024/03/02 11:53:34;;;;;;;4.30;2.63;;;11.80;99.90;;;;;;4936327;29;20078;-83
2024/03/02 11:56:02;;;;;;;4.40;2.63;;;11.80;99.90;;;;;;4936941;29;20109;-83
2024/03/02 11:58:29;;;;;;;5.90;2.85;;;11.80;99.90;;;;;;4936825;29;20393;-84
2024/03/02 12:00:56;;;;;;;4.72;2.53;;;11.90;99.90;;;;;;4951975;29;20047;-84
2024/03/02 12:03:25;;;;;;;7.28;2.80;;;11.90;99.90;;;;;;4943191;29;20040;-84
2024/03/02 12:05:55;;;;;;;6.35;3.00;;;11.90;99.90;;;;;;4936672;29;20644;-84
2024/03/02 12:08:23;;;;;;;4.93;2.47;;;11.90;99.90;;;;;;4936564;29;20035;-84
2024/03/02 12:11:02;;;;;;;5.65;2.90;;;11.80;99.90;;;;;;4949270;29;20059;-84
2024/03/02 12:13:28;;;;;;;5.97;2.83;;;11.80;99.90;;;;;;4935075;29;20497;-84
2024/03/02 12:15:56;;;;;;;4.53;2.60;;;11.80;99.90;;;;;;4925929;29;20074;-84
2024/03/02 12:18:23;;;;;;;7.57;2.90;;;11.80;99.90;;;;;;4936758;29;20047;-84
2024/03/02 12:20:57;;;;;;;4.55;2.42;;;11.80;99.90;;;;;;4940489;29;20044;-84
2024/03/02 12:23:23;;;;;;;5.55;2.60;;;11.70;99.90;;;;;;4936206;29;20078;-84
2024/03/02 12:25:50;;;;;;;4.80;2.60;;;11.90;99.90;;;;;;4936332;29;20043;-84
2024/03/02 12:28:17;;;;;;;3.63;1.80;;;11.90;99.90;;;;;;4925197;29;20040;-84
2024/03/02 12:30:45;;;;;;;5.15;2.13;;;11.90;99.90;;;;;;4936012;29;20066;-83
2024/03/02 12:33:11;;;;;;;4.65;1.90;;;11.90;99.90;;;;;;4936014;29;20036;-84
2024/03/02 12:35:39;;;;;;;4.45;1.88;;;12.00;99.90;;;;;;4935868;29;20077;-83
2024/03/02 12:38:06;;;;;;;4.47;2.30;;;12.00;99.90;;;;;;4933050;29;20032;-83
2024/03/02 12:40:32;;;;;;;11.20;2.22;;;12.00;99.90;;;;;;4937493;29;20412;-83
2024/03/02 12:42:59;;;;;;;5.75;2.30;;;12.00;99.90;;;;;;4936818;29;20044;-84
2024/03/02 12:45:27;;;;;;;5.18;2.00;;;12.20;99.90;;;;;;4934519;29;20036;-84
2024/03/02 12:47:53;;;;;;;6.63;2.33;;;12.10;99.90;;;;;;4960935;29;20123;-84
2024/03/02 12:50:21;;;;;;;6.07;2.28;;;12.20;99.90;;;;;;4944530;29;20140;-84
2024/03/02 12:52:52;;;;;;;4.50;2.15;;;12.20;99.90;;;;;;4955159;29;20047;-84
2024/03/02 12:55:21;;;;;;;4.13;1.90;;;12.30;99.90;;;;;;4939712;29;20032;-84
2024/03/02 12:57:51;;;;;;;4.22;2.00;;;12.20;99.90;;;;;;4939723;29;20044;-84
2024/03/02 13:00:19;;;;;;;5.60;2.00;;;12.10;99.90;;;;;;4939445;29;20067;-83
2024/03/02 13:02:46;;;;;;;4.60;1.80;;;12.10;99.90;;;;;;4945673;29;20725;-84
2024/03/02 13:05:13;;;;;;;3.35;1.88;;;12.10;99.90;;;;;;4955493;29;20047;-83